sensor_id;sensor_type;location;lat;lon;timestamp;P1;durP1;ratioP1;P2;durP2;ratioP2
39502;SDS011;26970;49.900;10.774;2023-10-13T00:01:00;19.42;;;9.20;;
39502;SDS011;26970;49.900;10.774;2023-10-13T00:03:29;19.02;;;9.05;;
39502;SDS011;26970;49.900;10.774;2023-10-13T00:05:59;19.52;;;9.32;;
39502;SDS011;26970;49.900;10.774;2023-10-13T00:08:28;16.20;;;8.38;;
39502;SDS011;26970;49.900;10.774;2023-10-13T00:10:54;16.08;;;9.00;;
39502;SDS011;26970;49.900;10.774;2023-10-13T00:13:28;22.15;;;9.60;;
39502;SDS011;26970;49.900;10.774;2023-10-13T00:18:28;18.50;;;8.70;;
39502;SDS011;26970;49.900;10.774;2023-10-13T00:20:59;17.73;;;9.35;;
39502;SDS011;26970;49.900;10.774;2023-10-13T00:23:25;21.88;;;10.48;;
39502;SDS011;26970;49.900;10.774;2023-10-13T00:25:53;16.42;;;9.85;;
39502;SDS011;26970;49.900;10.774;2023-10-13T00:28:25;18.63;;;9.80;;
39502;SDS011;26970;49.900;10.774;2023-10-13T00:30:52;21.20;;;10.93;;
39502;SDS011;26970;49.900;10.774;2023-10-13T00:33:24;21.27;;;10.18;;
39502;SDS011;26970;49.900;10.774;2023-10-13T00:35:50;17.70;;;9.75;;
39502;SDS011;26970;49.900;10.774;2023-10-13T00:38:22;20.67;;;10.57;;
39502;SDS011;26970;49.900;10.774;2023-10-13T00:40:48;23.48;;;10.63;;
39502;SDS011;26970;49.900;10.774;2023-10-13T00:43:20;22.50;;;10.75;;
39502;SDS011;26970;49.900;10.774;2023-10-13T00:45:56;25.75;;;12.02;;
39502;SDS011;26970;49.900;10.774;2023-10-13T00:48:35;22.13;;;11.00;;
39502;SDS011;26970;49.900;10.774;2023-10-13T00:51:16;21.40;;;11.55;;
39502;SDS011;26970;49.900;10.774;2023-10-13T00:53:58;22.58;;;11.02;;
39502;SDS011;26970;49.900;10.774;2023-10-13T00:56:27;18.00;;;11.38;;
39502;SDS011;26970;49.900;10.774;2023-10-13T00:58:54;20.52;;;12.20;;
39502;SDS011;26970;49.900;10.774;2023-10-13T01:01:22;20.35;;;11.93;;
39502;SDS011;26970;49.900;10.774;2023-10-13T01:03:54;19.20;;;11.23;;
39502;SDS011;26970;49.900;10.774;2023-10-13T01:06:21;20.88;;;11.52;;
39502;SDS011;26970;49.900;10.774;2023-10-13T01:09:00;18.30;;;11.25;;
39502;SDS011;26970;49.900;10.774;2023-10-13T01:11:50;24.35;;;12.57;;
39502;SDS011;26970;49.900;10.774;2023-10-13T01:14:20;19.92;;;11.32;;
39502;SDS011;26970;49.900;10.774;2023-10-13T01:16:47;21.88;;;11.18;;
39502;SDS011;26970;49.900;10.774;2023-10-13T01:19:17;22.33;;;10.05;;
39502;SDS011;26970;49.900;10.774;2023-10-13T01:21:44;28.67;;;12.70;;
39502;SDS011;26970;49.900;10.774;2023-10-13T01:24:12;19.42;;;11.18;;
39502;SDS011;26970;49.900;10.774;2023-10-13T01:26:38;21.08;;;11.13;;
39502;SDS011;26970;49.900;10.774;2023-10-13T01:29:05;23.95;;;11.13;;
39502;SDS011;26970;49.900;10.774;2023-10-13T01:31:40;27.17;;;12.80;;
39502;SDS011;26970;49.900;10.774;2023-10-13T01:34:16;22.02;;;11.38;;
39502;SDS011;26970;49.900;10.774;2023-10-13T01:36:50;22.48;;;12.38;;
39502;SDS011;26970;49.900;10.774;2023-10-13T01:39:17;22.20;;;11.57;;
39502;SDS011;26970;49.900;10.774;2023-10-13T01:41:43;20.17;;;11.13;;
39502;SDS011;26970;49.900;10.774;2023-10-13T01:44:09;20.55;;;11.50;;
39502;SDS011;26970;49.900;10.774;2023-10-13T01:46:39;20.85;;;11.68;;
39502;SDS011;26970;49.900;10.774;2023-10-13T01:49:07;17.00;;;11.77;;
39502;SDS011;26970;49.900;10.774;2023-10-13T01:51:33;18.05;;;11.10;;
39502;SDS011;26970;49.900;10.774;2023-10-13T01:53:59;22.45;;;11.63;;
39502;SDS011;26970;49.900;10.774;2023-10-13T01:56:29;21.92;;;11.93;;
39502;SDS011;26970;49.900;10.774;2023-10-13T01:58:56;21.08;;;11.73;;
39502;SDS011;26970;49.900;10.774;2023-10-13T02:01:21;23.13;;;12.52;;
39502;SDS011;26970;49.900;10.774;2023-10-13T02:03:54;24.60;;;12.30;;
39502;SDS011;26970;49.900;10.774;2023-10-13T02:06:31;22.08;;;11.68;;
39502;SDS011;26970;49.900;10.774;2023-10-13T02:11:41;17.95;;;11.80;;
39502;SDS011;26970;49.900;10.774;2023-10-13T02:14:10;19.52;;;12.23;;
39502;SDS011;26970;49.900;10.774;2023-10-13T02:16:36;20.98;;;12.50;;
39502;SDS011;26970;49.900;10.774;2023-10-13T02:19:05;23.17;;;12.77;;
39502;SDS011;26970;49.900;10.774;2023-10-13T02:21:34;20.30;;;12.77;;
39502;SDS011;26970;49.900;10.774;2023-10-13T02:24:08;22.05;;;11.73;;
39502;SDS011;26970;49.900;10.774;2023-10-13T02:26:43;23.35;;;13.10;;
39502;SDS011;26970;49.900;10.774;2023-10-13T02:29:10;18.50;;;12.13;;
39502;SDS011;26970;49.900;10.774;2023-10-13T02:31:40;23.58;;;12.45;;
39502;SDS011;26970;49.900;10.774;2023-10-13T02:34:07;23.48;;;13.20;;
39502;SDS011;26970;49.900;10.774;2023-10-13T02:36:34;23.48;;;13.07;;
39502;SDS011;26970;49.900;10.774;2023-10-13T02:39:12;25.67;;;13.63;;
39502;SDS011;26970;49.900;10.774;2023-10-13T02:41:39;26.75;;;13.52;;
39502;SDS011;26970;49.900;10.774;2023-10-13T02:44:06;24.73;;;13.57;;
39502;SDS011;26970;49.900;10.774;2023-10-13T02:46:33;24.90;;;13.57;;
39502;SDS011;26970;49.900;10.774;2023-10-13T02:49:04;21.23;;;12.27;;
39502;SDS011;26970;49.900;10.774;2023-10-13T02:51:39;22.52;;;13.18;;
39502;SDS011;26970;49.900;10.774;2023-10-13T02:54:08;24.80;;;14.00;;
39502;SDS011;26970;49.900;10.774;2023-10-13T02:56:46;27.38;;;13.27;;
39502;SDS011;26970;49.900;10.774;2023-10-13T02:59:21;19.83;;;12.38;;
39502;SDS011;26970;49.900;10.774;2023-10-13T03:02:02;25.60;;;12.30;;
39502;SDS011;26970;49.900;10.774;2023-10-13T03:04:49;28.42;;;13.32;;
39502;SDS011;26970;49.900;10.774;2023-10-13T03:07:15;22.77;;;12.82;;
39502;SDS011;26970;49.900;10.774;2023-10-13T03:09:47;19.48;;;12.30;;
39502;SDS011;26970;49.900;10.774;2023-10-13T03:12:17;23.40;;;14.30;;
39502;SDS011;26970;49.900;10.774;2023-10-13T03:14:43;20.40;;;12.38;;
39502;SDS011;26970;49.900;10.774;2023-10-13T03:17:21;22.92;;;12.07;;
39502;SDS011;26970;49.900;10.774;2023-10-13T03:19:58;16.70;;;12.73;;
39502;SDS011;26970;49.900;10.774;2023-10-13T03:22:25;22.77;;;12.38;;
39502;SDS011;26970;49.900;10.774;2023-10-13T03:24:57;19.58;;;13.13;;
39502;SDS011;26970;49.900;10.774;2023-10-13T03:27:34;20.27;;;11.32;;
39502;SDS011;26970;49.900;10.774;2023-10-13T03:30:25;22.17;;;12.93;;
39502;SDS011;26970;49.900;10.774;2023-10-13T03:33:04;25.85;;;12.05;;
39502;SDS011;26970;49.900;10.774;2023-10-13T03:35:50;22.40;;;12.13;;
39502;SDS011;26970;49.900;10.774;2023-10-13T03:38:19;23.55;;;12.35;;
39502;SDS011;26970;49.900;10.774;2023-10-13T03:40:50;20.15;;;12.40;;
39502;SDS011;26970;49.900;10.774;2023-10-13T03:43:35;22.27;;;12.93;;
39502;SDS011;26970;49.900;10.774;2023-10-13T03:46:17;24.48;;;13.00;;
39502;SDS011;26970;49.900;10.774;2023-10-13T03:48:46;20.45;;;12.90;;
39502;SDS011;26970;49.900;10.774;2023-10-13T03:51:19;29.17;;;12.85;;
39502;SDS011;26970;49.900;10.774;2023-10-13T03:53:45;24.63;;;12.48;;
39502;SDS011;26970;49.900;10.774;2023-10-13T03:59:05;25.67;;;14.80;;
39502;SDS011;26970;49.900;10.774;2023-10-13T04:01:35;25.20;;;12.30;;
39502;SDS011;26970;49.900;10.774;2023-10-13T04:04:16;24.88;;;12.23;;
39502;SDS011;26970;49.900;10.774;2023-10-13T04:07:00;18.15;;;11.93;;
39502;SDS011;26970;49.900;10.774;2023-10-13T04:09:35;21.20;;;13.18;;
39502;SDS011;26970;49.900;10.774;2023-10-13T04:12:02;23.77;;;12.82;;
39502;SDS011;26970;49.900;10.774;2023-10-13T04:14:33;21.55;;;12.73;;
39502;SDS011;26970;49.900;10.774;2023-10-13T04:17:19;20.98;;;11.80;;
39502;SDS011;26970;49.900;10.774;2023-10-13T04:19:50;24.60;;;13.68;;
39502;SDS011;26970;49.900;10.774;2023-10-13T04:22:39;19.92;;;11.80;;
39502;SDS011;26970;49.900;10.774;2023-10-13T04:25:21;23.35;;;12.93;;
39502;SDS011;26970;49.900;10.774;2023-10-13T04:28:07;26.45;;;12.85;;
39502;SDS011;26970;49.900;10.774;2023-10-13T04:33:24;20.42;;;12.95;;
39502;SDS011;26970;49.900;10.774;2023-10-13T04:36:01;21.40;;;13.10;;
39502;SDS011;26970;49.900;10.774;2023-10-13T04:38:38;19.60;;;12.65;;
39502;SDS011;26970;49.900;10.774;2023-10-13T04:41:35;25.02;;;13.35;;
39502;SDS011;26970;49.900;10.774;2023-10-13T04:44:07;23.83;;;13.30;;
39502;SDS011;26970;49.900;10.774;2023-10-13T04:46:55;24.40;;;13.32;;
39502;SDS011;26970;49.900;10.774;2023-10-13T04:49:24;21.95;;;12.68;;
39502;SDS011;26970;49.900;10.774;2023-10-13T04:52:00;27.30;;;13.93;;
39502;SDS011;26970;49.900;10.774;2023-10-13T04:54:34;27.73;;;13.38;;
39502;SDS011;26970;49.900;10.774;2023-10-13T04:57:13;21.75;;;12.23;;
39502;SDS011;26970;49.900;10.774;2023-10-13T04:59:58;29.02;;;13.55;;
39502;SDS011;26970;49.900;10.774;2023-10-13T05:02:34;25.23;;;12.77;;
39502;SDS011;26970;49.900;10.774;2023-10-13T05:05:01;23.50;;;13.35;;
39502;SDS011;26970;49.900;10.774;2023-10-13T05:07:51;19.88;;;12.10;;
39502;SDS011;26970;49.900;10.774;2023-10-13T05:10:35;20.90;;;12.95;;
39502;SDS011;26970;49.900;10.774;2023-10-13T05:13:20;19.50;;;12.73;;
39502;SDS011;26970;49.900;10.774;2023-10-13T05:16:05;19.05;;;12.65;;
39502;SDS011;26970;49.900;10.774;2023-10-13T05:18:49;21.63;;;12.82;;
39502;SDS011;26970;49.900;10.774;2023-10-13T05:21:33;30.05;;;12.77;;
39502;SDS011;26970;49.900;10.774;2023-10-13T05:24:17;25.90;;;12.70;;
39502;SDS011;26970;49.900;10.774;2023-10-13T05:27:01;22.98;;;12.85;;
39502;SDS011;26970;49.900;10.774;2023-10-13T05:29:46;19.80;;;13.25;;
39502;SDS011;26970;49.900;10.774;2023-10-13T05:32:30;23.75;;;13.93;;
39502;SDS011;26970;49.900;10.774;2023-10-13T05:35:15;27.75;;;14.00;;
39502;SDS011;26970;49.900;10.774;2023-10-13T05:38:00;23.52;;;12.70;;
39502;SDS011;26970;49.900;10.774;2023-10-13T05:40:58;25.60;;;13.43;;
39502;SDS011;26970;49.900;10.774;2023-10-13T05:46:32;25.77;;;12.63;;
39502;SDS011;26970;49.900;10.774;2023-10-13T05:49:04;23.00;;;13.77;;
39502;SDS011;26970;49.900;10.774;2023-10-13T05:51:31;20.83;;;13.00;;
39502;SDS011;26970;49.900;10.774;2023-10-13T05:59:25;30.30;;;13.32;;
39502;SDS011;26970;49.900;10.774;2023-10-13T06:02:10;23.42;;;13.60;;
39502;SDS011;26970;49.900;10.774;2023-10-13T06:04:54;26.02;;;13.80;;
39502;SDS011;26970;49.900;10.774;2023-10-13T06:07:39;24.67;;;12.75;;
39502;SDS011;26970;49.900;10.774;2023-10-13T06:10:23;27.33;;;13.30;;
39502;SDS011;26970;49.900;10.774;2023-10-13T06:13:11;23.90;;;13.48;;
39502;SDS011;26970;49.900;10.774;2023-10-13T06:15:56;21.40;;;13.45;;
39502;SDS011;26970;49.900;10.774;2023-10-13T06:18:40;22.15;;;14.07;;
39502;SDS011;26970;49.900;10.774;2023-10-13T06:21:24;23.27;;;14.02;;
39502;SDS011;26970;49.900;10.774;2023-10-13T06:24:08;18.55;;;12.65;;
39502;SDS011;26970;49.900;10.774;2023-10-13T06:26:52;21.80;;;12.90;;
39502;SDS011;26970;49.900;10.774;2023-10-13T06:29:36;23.83;;;13.25;;
39502;SDS011;26970;49.900;10.774;2023-10-13T06:32:01;29.85;;;13.07;;
39502;SDS011;26970;49.900;10.774;2023-10-13T06:34:35;24.80;;;13.45;;
39502;SDS011;26970;49.900;10.774;2023-10-13T06:37:11;23.15;;;13.18;;
39502;SDS011;26970;49.900;10.774;2023-10-13T06:40:09;24.83;;;13.68;;
39502;SDS011;26970;49.900;10.774;2023-10-13T06:42:54;22.67;;;12.88;;
39502;SDS011;26970;49.900;10.774;2023-10-13T06:45:42;21.13;;;11.95;;
39502;SDS011;26970;49.900;10.774;2023-10-13T06:48:08;18.40;;;12.10;;
39502;SDS011;26970;49.900;10.774;2023-10-13T06:50:39;21.52;;;11.18;;
39502;SDS011;26970;49.900;10.774;2023-10-13T06:53:06;26.00;;;11.55;;
39502;SDS011;26970;49.900;10.774;2023-10-13T06:55:32;22.15;;;12.00;;
39502;SDS011;26970;49.900;10.774;2023-10-13T06:58:04;22.00;;;10.45;;
39502;SDS011;26970;49.900;10.774;2023-10-13T07:00:38;20.80;;;10.40;;
39502;SDS011;26970;49.900;10.774;2023-10-13T07:03:05;21.63;;;10.98;;
39502;SDS011;26970;49.900;10.774;2023-10-13T07:05:35;19.58;;;10.63;;
39502;SDS011;26970;49.900;10.774;2023-10-13T07:08:03;20.00;;;11.55;;
39502;SDS011;26970;49.900;10.774;2023-10-13T07:10:30;18.83;;;10.15;;
39502;SDS011;26970;49.900;10.774;2023-10-13T07:12:57;18.40;;;10.38;;
39502;SDS011;26970;49.900;10.774;2023-10-13T07:15:25;14.90;;;8.90;;
39502;SDS011;26970;49.900;10.774;2023-10-13T07:17:54;18.15;;;10.13;;
39502;SDS011;26970;49.900;10.774;2023-10-13T07:20:24;16.48;;;9.48;;
39502;SDS011;26970;49.900;10.774;2023-10-13T07:22:58;16.55;;;8.80;;
39502;SDS011;26970;49.900;10.774;2023-10-13T07:25:31;19.73;;;8.88;;
39502;SDS011;26970;49.900;10.774;2023-10-13T07:28:01;14.18;;;9.38;;
39502;SDS011;26970;49.900;10.774;2023-10-13T07:30:33;25.50;;;10.57;;
39502;SDS011;26970;49.900;10.774;2023-10-13T07:33:34;13.55;;;9.40;;
39502;SDS011;26970;49.900;10.774;2023-10-13T07:36:00;16.92;;;9.00;;
39502;SDS011;26970;49.900;10.774;2023-10-13T07:38:26;18.35;;;9.75;;
39502;SDS011;26970;49.900;10.774;2023-10-13T07:40:55;16.20;;;10.50;;
39502;SDS011;26970;49.900;10.774;2023-10-13T07:43:31;15.75;;;9.18;;
39502;SDS011;26970;49.900;10.774;2023-10-13T07:45:58;16.42;;;8.98;;
39502;SDS011;26970;49.900;10.774;2023-10-13T07:48:24;17.08;;;8.55;;
39502;SDS011;26970;49.900;10.774;2023-10-13T07:51:00;16.30;;;9.55;;
39502;SDS011;26970;49.900;10.774;2023-10-13T07:56:04;17.52;;;9.00;;
39502;SDS011;26970;49.900;10.774;2023-10-13T07:58:33;21.60;;;9.52;;
39502;SDS011;26970;49.900;10.774;2023-10-13T08:01:12;12.88;;;9.00;;
39502;SDS011;26970;49.900;10.774;2023-10-13T08:03:42;11.75;;;8.35;;
39502;SDS011;26970;49.900;10.774;2023-10-13T08:06:11;21.63;;;9.18;;
39502;SDS011;26970;49.900;10.774;2023-10-13T08:08:39;15.05;;;8.77;;
39502;SDS011;26970;49.900;10.774;2023-10-13T08:11:08;20.17;;;8.75;;
39502;SDS011;26970;49.900;10.774;2023-10-13T08:13:58;15.02;;;9.85;;
39502;SDS011;26970;49.900;10.774;2023-10-13T08:16:29;16.33;;;9.63;;
39502;SDS011;26970;49.900;10.774;2023-10-13T08:19:13;13.25;;;8.90;;
39502;SDS011;26970;49.900;10.774;2023-10-13T08:22:10;12.02;;;8.05;;
39502;SDS011;26970;49.900;10.774;2023-10-13T08:24:42;14.85;;;9.77;;
39502;SDS011;26970;49.900;10.774;2023-10-13T08:27:08;16.73;;;8.55;;
39502;SDS011;26970;49.900;10.774;2023-10-13T08:29:43;14.23;;;7.93;;
39502;SDS011;26970;49.900;10.774;2023-10-13T08:32:18;14.77;;;7.93;;
39502;SDS011;26970;49.900;10.774;2023-10-13T08:34:53;16.58;;;7.65;;
39502;SDS011;26970;49.900;10.774;2023-10-13T08:37:23;14.88;;;7.80;;
39502;SDS011;26970;49.900;10.774;2023-10-13T08:39:49;14.65;;;7.40;;
39502;SDS011;26970;49.900;10.774;2023-10-13T08:42:26;15.32;;;7.40;;
39502;SDS011;26970;49.900;10.774;2023-10-13T08:47:57;15.68;;;7.25;;
39502;SDS011;26970;49.900;10.774;2023-10-13T08:50:36;17.10;;;7.18;;
39502;SDS011;26970;49.900;10.774;2023-10-13T08:53:21;15.10;;;7.65;;
39502;SDS011;26970;49.900;10.774;2023-10-13T08:55:57;14.43;;;7.07;;
39502;SDS011;26970;49.900;10.774;2023-10-13T08:58:36;13.30;;;6.20;;
39502;SDS011;26970;49.900;10.774;2023-10-13T09:01:27;15.57;;;6.75;;
39502;SDS011;26970;49.900;10.774;2023-10-13T09:04:14;13.20;;;6.07;;
39502;SDS011;26970;49.900;10.774;2023-10-13T09:06:44;14.30;;;6.78;;
39502;SDS011;26970;49.900;10.774;2023-10-13T09:09:29;13.10;;;6.63;;
39502;SDS011;26970;49.900;10.774;2023-10-13T09:12:27;9.70;;;5.63;;
39502;SDS011;26970;49.900;10.774;2023-10-13T09:14:58;10.30;;;5.63;;
39502;SDS011;26970;49.900;10.774;2023-10-13T09:20:38;12.27;;;6.13;;
39502;SDS011;26970;49.900;10.774;2023-10-13T09:23:11;14.52;;;6.50;;
39502;SDS011;26970;49.900;10.774;2023-10-13T09:25:45;13.88;;;6.60;;
39502;SDS011;26970;49.900;10.774;2023-10-13T09:28:22;10.38;;;6.07;;
39502;SDS011;26970;49.900;10.774;2023-10-13T09:30:53;11.95;;;6.00;;
39502;SDS011;26970;49.900;10.774;2023-10-13T09:33:26;13.30;;;6.07;;
39502;SDS011;26970;49.900;10.774;2023-10-13T09:36:01;12.93;;;5.60;;
39502;SDS011;26970;49.900;10.774;2023-10-13T09:38:38;9.57;;;5.45;;
39502;SDS011;26970;49.900;10.774;2023-10-13T09:41:12;14.85;;;5.53;;
39502;SDS011;26970;49.900;10.774;2023-10-13T09:43:44;12.27;;;5.40;;
39502;SDS011;26970;49.900;10.774;2023-10-13T09:46:11;10.05;;;5.10;;
39502;SDS011;26970;49.900;10.774;2023-10-13T09:48:46;9.98;;;5.20;;
39502;SDS011;26970;49.900;10.774;2023-10-13T09:51:13;12.00;;;5.72;;
39502;SDS011;26970;49.900;10.774;2023-10-13T09:53:47;18.27;;;5.78;;
39502;SDS011;26970;49.900;10.774;2023-10-13T09:56:21;11.23;;;5.28;;
39502;SDS011;26970;49.900;10.774;2023-10-13T10:01:37;11.00;;;5.20;;
39502;SDS011;26970;49.900;10.774;2023-10-13T10:04:16;9.45;;;5.68;;
39502;SDS011;26970;49.900;10.774;2023-10-13T10:06:53;9.30;;;5.10;;
39502;SDS011;26970;49.900;10.774;2023-10-13T10:09:28;10.15;;;5.20;;
39502;SDS011;26970;49.900;10.774;2023-10-13T10:15:30;12.05;;;5.10;;
39502;SDS011;26970;49.900;10.774;2023-10-13T10:18:03;11.75;;;5.18;;
39502;SDS011;26970;49.900;10.774;2023-10-13T10:20:36;14.80;;;4.95;;
39502;SDS011;26970;49.900;10.774;2023-10-13T10:23:10;11.30;;;5.35;;
39502;SDS011;26970;49.900;10.774;2023-10-13T10:25:52;11.23;;;5.38;;
39502;SDS011;26970;49.900;10.774;2023-10-13T10:28:37;14.00;;;5.40;;
39502;SDS011;26970;49.900;10.774;2023-10-13T10:31:30;12.77;;;5.22;;
39502;SDS011;26970;49.900;10.774;2023-10-13T10:36:53;13.40;;;4.97;;
39502;SDS011;26970;49.900;10.774;2023-10-13T10:43:14;12.32;;;4.53;;
39502;SDS011;26970;49.900;10.774;2023-10-13T10:45:46;9.90;;;4.50;;
39502;SDS011;26970;49.900;10.774;2023-10-13T10:48:16;12.18;;;4.72;;
39502;SDS011;26970;49.900;10.774;2023-10-13T10:50:52;10.93;;;4.35;;
39502;SDS011;26970;49.900;10.774;2023-10-13T10:53:27;11.82;;;4.43;;
39502;SDS011;26970;49.900;10.774;2023-10-13T10:56:05;13.23;;;4.57;;
39502;SDS011;26970;49.900;10.774;2023-10-13T10:58:44;11.50;;;4.95;;
39502;SDS011;26970;49.900;10.774;2023-10-13T11:01:22;9.00;;;4.30;;
39502;SDS011;26970;49.900;10.774;2023-10-13T11:03:56;10.40;;;4.63;;
39502;SDS011;26970;49.900;10.774;2023-10-13T11:06:53;10.25;;;5.10;;
39502;SDS011;26970;49.900;10.774;2023-10-13T11:09:26;10.52;;;4.80;;
39502;SDS011;26970;49.900;10.774;2023-10-13T11:14:44;10.02;;;4.35;;
39502;SDS011;26970;49.900;10.774;2023-10-13T11:17:22;8.68;;;4.60;;
39502;SDS011;26970;49.900;10.774;2023-10-13T11:20:07;9.90;;;4.78;;
39502;SDS011;26970;49.900;10.774;2023-10-13T11:22:41;8.05;;;4.40;;
39502;SDS011;26970;49.900;10.774;2023-10-13T11:25:19;8.30;;;4.13;;
39502;SDS011;26970;49.900;10.774;2023-10-13T11:27:55;7.68;;;4.25;;
39502;SDS011;26970;49.900;10.774;2023-10-13T11:30:23;10.88;;;4.13;;
39502;SDS011;26970;49.900;10.774;2023-10-13T11:36:11;7.25;;;3.92;;
39502;SDS011;26970;49.900;10.774;2023-10-13T11:38:48;10.07;;;4.72;;
39502;SDS011;26970;49.900;10.774;2023-10-13T11:41:13;7.78;;;4.40;;
39502;SDS011;26970;49.900;10.774;2023-10-13T11:43:58;9.23;;;4.75;;
39502;SDS011;26970;49.900;10.774;2023-10-13T11:47:07;8.23;;;4.28;;
39502;SDS011;26970;49.900;10.774;2023-10-13T11:49:53;12.80;;;4.50;;
39502;SDS011;26970;49.900;10.774;2023-10-13T11:52:29;8.68;;;4.20;;
39502;SDS011;26970;49.900;10.774;2023-10-13T11:55:07;9.23;;;4.72;;
39502;SDS011;26970;49.900;10.774;2023-10-13T11:57:46;10.20;;;4.22;;
39502;SDS011;26970;49.900;10.774;2023-10-13T12:00:24;9.77;;;4.28;;
39502;SDS011;26970;49.900;10.774;2023-10-13T12:03:12;9.07;;;4.13;;
39502;SDS011;26970;49.900;10.774;2023-10-13T12:05:58;9.10;;;3.80;;
39502;SDS011;26970;49.900;10.774;2023-10-13T12:08:58;8.18;;;3.83;;
39502;SDS011;26970;49.900;10.774;2023-10-13T12:11:40;14.70;;;4.20;;
39502;SDS011;26970;49.900;10.774;2023-10-13T12:14:16;7.72;;;4.10;;
39502;SDS011;26970;49.900;10.774;2023-10-13T12:17:08;8.65;;;3.80;;
39502;SDS011;26970;49.900;10.774;2023-10-13T12:23:16;8.35;;;4.00;;
39502;SDS011;26970;49.900;10.774;2023-10-13T12:26:04;7.72;;;3.83;;
39502;SDS011;26970;49.900;10.774;2023-10-13T12:28:46;8.15;;;4.18;;
39502;SDS011;26970;49.900;10.774;2023-10-13T12:31:44;8.65;;;4.35;;
39502;SDS011;26970;49.900;10.774;2023-10-13T12:34:19;12.07;;;4.55;;
39502;SDS011;26970;49.900;10.774;2023-10-13T12:37:08;13.57;;;4.38;;
39502;SDS011;26970;49.900;10.774;2023-10-13T12:39:56;9.18;;;4.03;;
39502;SDS011;26970;49.900;10.774;2023-10-13T12:42:40;9.25;;;4.22;;
39502;SDS011;26970;49.900;10.774;2023-10-13T12:45:25;11.60;;;4.53;;
39502;SDS011;26970;49.900;10.774;2023-10-13T12:48:09;7.57;;;3.72;;
39502;SDS011;26970;49.900;10.774;2023-10-13T12:50:53;10.15;;;3.90;;
39502;SDS011;26970;49.900;10.774;2023-10-13T12:54:02;8.10;;;4.28;;
39502;SDS011;26970;49.900;10.774;2023-10-13T12:56:39;12.75;;;3.97;;
39502;SDS011;26970;49.900;10.774;2023-10-13T12:59:08;8.95;;;4.20;;
39502;SDS011;26970;49.900;10.774;2023-10-13T13:01:38;8.82;;;3.78;;
39502;SDS011;26970;49.900;10.774;2023-10-13T13:04:09;7.50;;;3.85;;
39502;SDS011;26970;49.900;10.774;2023-10-13T13:06:50;8.88;;;3.80;;
39502;SDS011;26970;49.900;10.774;2023-10-13T13:09:21;10.75;;;3.92;;
39502;SDS011;26970;49.900;10.774;2023-10-13T13:11:52;9.38;;;4.55;;
39502;SDS011;26970;49.900;10.774;2023-10-13T13:14:22;12.60;;;4.45;;
39502;SDS011;26970;49.900;10.774;2023-10-13T13:17:06;8.77;;;3.75;;
39502;SDS011;26970;49.900;10.774;2023-10-13T13:19:37;8.40;;;3.92;;
39502;SDS011;26970;49.900;10.774;2023-10-13T13:22:05;8.15;;;3.63;;
39502;SDS011;26970;49.900;10.774;2023-10-13T13:24:44;9.13;;;3.90;;
39502;SDS011;26970;49.900;10.774;2023-10-13T13:27:10;8.05;;;3.90;;
39502;SDS011;26970;49.900;10.774;2023-10-13T13:29:45;8.25;;;3.25;;
39502;SDS011;26970;49.900;10.774;2023-10-13T13:32:21;9.02;;;3.88;;
39502;SDS011;26970;49.900;10.774;2023-10-13T13:34:58;11.52;;;4.00;;
39502;SDS011;26970;49.900;10.774;2023-10-13T13:37:38;7.50;;;3.83;;
39502;SDS011;26970;49.900;10.774;2023-10-13T13:40:13;7.35;;;4.20;;
39502;SDS011;26970;49.900;10.774;2023-10-13T13:42:42;10.63;;;3.65;;
39502;SDS011;26970;49.900;10.774;2023-10-13T13:48:18;11.13;;;4.78;;
39502;SDS011;26970;49.900;10.774;2023-10-13T13:50:50;9.65;;;4.07;;
39502;SDS011;26970;49.900;10.774;2023-10-13T13:53:56;8.88;;;4.13;;
39502;SDS011;26970;49.900;10.774;2023-10-13T13:59:18;6.82;;;3.80;;
39502;SDS011;26970;49.900;10.774;2023-10-13T14:01:53;9.25;;;3.80;;
39502;SDS011;26970;49.900;10.774;2023-10-13T14:04:27;12.50;;;4.68;;
39502;SDS011;26970;49.900;10.774;2023-10-13T14:07:23;12.05;;;4.25;;
39502;SDS011;26970;49.900;10.774;2023-10-13T14:09:57;7.95;;;4.22;;
39502;SDS011;26970;49.900;10.774;2023-10-13T14:12:31;11.07;;;4.18;;
39502;SDS011;26970;49.900;10.774;2023-10-13T14:15:27;13.32;;;4.88;;
39502;SDS011;26970;49.900;10.774;2023-10-13T14:21:01;9.43;;;4.00;;
39502;SDS011;26970;49.900;10.774;2023-10-13T14:26:45;8.68;;;3.92;;
39502;SDS011;26970;49.900;10.774;2023-10-13T14:29:16;9.05;;;4.35;;
39502;SDS011;26970;49.900;10.774;2023-10-13T14:34:37;10.43;;;3.97;;
39502;SDS011;26970;49.900;10.774;2023-10-13T14:37:39;7.53;;;3.75;;
39502;SDS011;26970;49.900;10.774;2023-10-13T14:40:20;13.40;;;4.03;;
39502;SDS011;26970;49.900;10.774;2023-10-13T14:42:54;9.40;;;3.75;;
39502;SDS011;26970;49.900;10.774;2023-10-13T14:45:30;12.02;;;4.25;;
39502;SDS011;26970;49.900;10.774;2023-10-13T14:48:03;8.27;;;4.00;;
39502;SDS011;26970;49.900;10.774;2023-10-13T14:50:45;9.60;;;4.05;;
39502;SDS011;26970;49.900;10.774;2023-10-13T14:56:28;9.15;;;3.80;;
39502;SDS011;26970;49.900;10.774;2023-10-13T14:59:06;7.07;;;3.90;;
39502;SDS011;26970;49.900;10.774;2023-10-13T15:04:49;6.90;;;3.90;;
39502;SDS011;26970;49.900;10.774;2023-10-13T15:10:21;8.70;;;4.10;;
39502;SDS011;26970;49.900;10.774;2023-10-13T15:13:11;11.25;;;4.38;;
39502;SDS011;26970;49.900;10.774;2023-10-13T15:15:50;12.98;;;5.30;;
39502;SDS011;26970;49.900;10.774;2023-10-13T15:21:37;9.40;;;4.07;;
39502;SDS011;26970;49.900;10.774;2023-10-13T15:27:44;8.10;;;3.77;;
39502;SDS011;26970;49.900;10.774;2023-10-13T15:30:24;8.90;;;4.03;;
39502;SDS011;26970;49.900;10.774;2023-10-13T15:33:10;9.85;;;4.07;;
39502;SDS011;26970;49.900;10.774;2023-10-13T15:35:50;10.68;;;4.07;;
39502;SDS011;26970;49.900;10.774;2023-10-13T15:38:22;9.98;;;3.92;;
39502;SDS011;26970;49.900;10.774;2023-10-13T15:40:58;11.48;;;3.83;;
39502;SDS011;26970;49.900;10.774;2023-10-13T15:43:57;9.07;;;4.55;;
39502;SDS011;26970;49.900;10.774;2023-10-13T15:46:39;10.75;;;4.18;;
39502;SDS011;26970;49.900;10.774;2023-10-13T15:49:11;15.77;;;3.97;;
39502;SDS011;26970;49.900;10.774;2023-10-13T15:51:48;8.23;;;4.18;;
39502;SDS011;26970;49.900;10.774;2023-10-13T15:54:37;11.75;;;4.00;;
39502;SDS011;26970;49.900;10.774;2023-10-13T15:57:31;11.65;;;4.50;;
39502;SDS011;26970;49.900;10.774;2023-10-13T16:00:21;6.32;;;3.78;;
39502;SDS011;26970;49.900;10.774;2023-10-13T16:03:04;11.38;;;4.57;;
39502;SDS011;26970;49.900;10.774;2023-10-13T16:09:23;13.00;;;3.90;;
39502;SDS011;26970;49.900;10.774;2023-10-13T16:12:13;6.95;;;4.13;;
39502;SDS011;26970;49.900;10.774;2023-10-13T16:14:42;9.02;;;3.90;;
39502;SDS011;26970;49.900;10.774;2023-10-13T16:18:15;8.50;;;4.15;;
39502;SDS011;26970;49.900;10.774;2023-10-13T16:21:00;13.10;;;4.65;;
39502;SDS011;26970;49.900;10.774;2023-10-13T16:23:56;10.40;;;4.40;;
39502;SDS011;26970;49.900;10.774;2023-10-13T16:27:00;10.20;;;4.28;;
39502;SDS011;26970;49.900;10.774;2023-10-13T16:29:31;8.55;;;4.00;;
39502;SDS011;26970;49.900;10.774;2023-10-13T16:32:02;7.88;;;3.75;;
39502;SDS011;26970;49.900;10.774;2023-10-13T16:34:53;10.15;;;3.70;;
39502;SDS011;26970;49.900;10.774;2023-10-13T16:37:24;7.20;;;3.55;;